sensor_id;sensor_type;location;lat;lon;timestamp;P1;durP1;ratioP1;P2;durP2;ratioP2
20067;SDS011;10194;50.824;7.134;2023-05-14T00:01:58;146.00;;;77.93;;
20067;SDS011;10194;50.824;7.134;2023-05-14T00:04:24;146.73;;;78.37;;
20067;SDS011;10194;50.824;7.134;2023-05-14T00:06:49;148.00;;;77.43;;
20067;SDS011;10194;50.824;7.134;2023-05-14T00:09:15;152.27;;;80.47;;
20067;SDS011;10194;50.824;7.134;2023-05-14T00:11:41;143.97;;;77.60;;
20067;SDS011;10194;50.824;7.134;2023-05-14T00:14:07;148.10;;;78.23;;
20067;SDS011;10194;50.824;7.134;2023-05-14T00:16:32;145.37;;;77.37;;
20067;SDS011;10194;50.824;7.134;2023-05-14T00:18:58;148.70;;;78.23;;
20067;SDS011;10194;50.824;7.134;2023-05-14T00:21:24;142.90;;;76.10;;
20067;SDS011;10194;50.824;7.134;2023-05-14T00:23:49;140.33;;;74.17;;
20067;SDS011;10194;50.824;7.134;2023-05-14T00:26:15;142.87;;;76.20;;
20067;SDS011;10194;50.824;7.134;2023-05-14T00:28:41;146.60;;;76.67;;
20067;SDS011;10194;50.824;7.134;2023-05-14T00:31:07;143.07;;;76.73;;
20067;SDS011;10194;50.824;7.134;2023-05-14T00:33:32;142.67;;;76.30;;
20067;SDS011;10194;50.824;7.134;2023-05-14T00:35:59;142.67;;;76.07;;
20067;SDS011;10194;50.824;7.134;2023-05-14T00:38:24;138.93;;;75.17;;
20067;SDS011;10194;50.824;7.134;2023-05-14T00:40:52;143.23;;;76.47;;
20067;SDS011;10194;50.824;7.134;2023-05-14T00:43:18;141.07;;;75.57;;
20067;SDS011;10194;50.824;7.134;2023-05-14T00:45:46;141.43;;;76.87;;
20067;SDS011;10194;50.824;7.134;2023-05-14T00:48:15;141.90;;;76.50;;
20067;SDS011;10194;50.824;7.134;2023-05-14T00:50:42;145.17;;;76.70;;
20067;SDS011;10194;50.824;7.134;2023-05-14T00:53:08;140.40;;;76.50;;
20067;SDS011;10194;50.824;7.134;2023-05-14T00:55:39;142.10;;;76.37;;
20067;SDS011;10194;50.824;7.134;2023-05-14T00:58:08;142.73;;;76.93;;
20067;SDS011;10194;50.824;7.134;2023-05-14T01:00:36;143.67;;;76.43;;
20067;SDS011;10194;50.824;7.134;2023-05-14T01:03:04;141.23;;;76.03;;
20067;SDS011;10194;50.824;7.134;2023-05-14T01:05:54;141.03;;;77.20;;
20067;SDS011;10194;50.824;7.134;2023-05-14T01:11:18;143.60;;;79.37;;
20067;SDS011;10194;50.824;7.134;2023-05-14T01:16:34;144.03;;;80.47;;
20067;SDS011;10194;50.824;7.134;2023-05-14T01:19:02;153.10;;;84.67;;
20067;SDS011;10194;50.824;7.134;2023-05-14T01:21:37;147.50;;;82.60;;
20067;SDS011;10194;50.824;7.134;2023-05-14T01:24:05;147.00;;;82.13;;
20067;SDS011;10194;50.824;7.134;2023-05-14T01:26:32;143.03;;;81.60;;
20067;SDS011;10194;50.824;7.134;2023-05-14T01:29:00;145.67;;;80.53;;
20067;SDS011;10194;50.824;7.134;2023-05-14T01:31:35;143.80;;;80.13;;
20067;SDS011;10194;50.824;7.134;2023-05-14T01:34:04;148.07;;;81.57;;
20067;SDS011;10194;50.824;7.134;2023-05-14T01:36:33;143.30;;;82.53;;
20067;SDS011;10194;50.824;7.134;2023-05-14T01:39:00;145.33;;;81.87;;
20067;SDS011;10194;50.824;7.134;2023-05-14T01:41:27;144.23;;;81.17;;
20067;SDS011;10194;50.824;7.134;2023-05-14T01:43:55;147.57;;;82.93;;
20067;SDS011;10194;50.824;7.134;2023-05-14T01:46:21;142.80;;;81.47;;
20067;SDS011;10194;50.824;7.134;2023-05-14T01:48:49;146.23;;;81.37;;
20067;SDS011;10194;50.824;7.134;2023-05-14T01:51:15;146.10;;;81.93;;
20067;SDS011;10194;50.824;7.134;2023-05-14T01:53:40;146.37;;;82.97;;
20067;SDS011;10194;50.824;7.134;2023-05-14T01:56:06;146.00;;;83.70;;
20067;SDS011;10194;50.824;7.134;2023-05-14T01:58:32;147.30;;;83.30;;
20067;SDS011;10194;50.824;7.134;2023-05-14T02:00:58;151.40;;;86.50;;
20067;SDS011;10194;50.824;7.134;2023-05-14T02:03:23;149.27;;;86.57;;
20067;SDS011;10194;50.824;7.134;2023-05-14T02:05:49;142.53;;;83.53;;
20067;SDS011;10194;50.824;7.134;2023-05-14T02:08:15;144.90;;;85.93;;
20067;SDS011;10194;50.824;7.134;2023-05-14T02:10:41;160.47;;;89.07;;
20067;SDS011;10194;50.824;7.134;2023-05-14T02:13:06;151.43;;;88.40;;
20067;SDS011;10194;50.824;7.134;2023-05-14T02:15:33;147.73;;;88.63;;
20067;SDS011;10194;50.824;7.134;2023-05-14T02:17:59;156.47;;;94.57;;
20067;SDS011;10194;50.824;7.134;2023-05-14T02:20:25;167.93;;;99.53;;
20067;SDS011;10194;50.824;7.134;2023-05-14T02:22:51;175.13;;;110.80;;
20067;SDS011;10194;50.824;7.134;2023-05-14T02:25:16;177.97;;;111.70;;
20067;SDS011;10194;50.824;7.134;2023-05-14T02:27:42;176.70;;;113.30;;
20067;SDS011;10194;50.824;7.134;2023-05-14T02:30:09;176.97;;;111.57;;
20067;SDS011;10194;50.824;7.134;2023-05-14T02:32:35;172.10;;;110.63;;
20067;SDS011;10194;50.824;7.134;2023-05-14T02:35:01;171.47;;;108.23;;
20067;SDS011;10194;50.824;7.134;2023-05-14T02:37:27;168.20;;;106.37;;
20067;SDS011;10194;50.824;7.134;2023-05-14T02:39:52;165.60;;;102.57;;
20067;SDS011;10194;50.824;7.134;2023-05-14T02:42:18;164.93;;;101.57;;
20067;SDS011;10194;50.824;7.134;2023-05-14T02:44:44;169.10;;;109.47;;
20067;SDS011;10194;50.824;7.134;2023-05-14T02:47:10;178.73;;;115.77;;
20067;SDS011;10194;50.824;7.134;2023-05-14T02:49:36;175.73;;;111.83;;
20067;SDS011;10194;50.824;7.134;2023-05-14T02:52:01;172.20;;;112.67;;
20067;SDS011;10194;50.824;7.134;2023-05-14T02:54:27;167.87;;;107.63;;
20067;SDS011;10194;50.824;7.134;2023-05-14T02:56:53;165.70;;;103.73;;
20067;SDS011;10194;50.824;7.134;2023-05-14T02:59:18;173.43;;;107.53;;
20067;SDS011;10194;50.824;7.134;2023-05-14T03:01:45;163.47;;;103.67;;
20067;SDS011;10194;50.824;7.134;2023-05-14T03:04:11;164.30;;;103.13;;
20067;SDS011;10194;50.824;7.134;2023-05-14T03:06:37;163.30;;;104.13;;
20067;SDS011;10194;50.824;7.134;2023-05-14T03:09:02;161.00;;;102.60;;
20067;SDS011;10194;50.824;7.134;2023-05-14T03:11:28;158.10;;;98.30;;
20067;SDS011;10194;50.824;7.134;2023-05-14T03:13:54;159.70;;;103.00;;
20067;SDS011;10194;50.824;7.134;2023-05-14T03:16:19;162.37;;;105.27;;
20067;SDS011;10194;50.824;7.134;2023-05-14T03:18:45;161.87;;;102.13;;
20067;SDS011;10194;50.824;7.134;2023-05-14T03:21:11;168.53;;;104.57;;
20067;SDS011;10194;50.824;7.134;2023-05-14T03:23:37;169.37;;;110.60;;
20067;SDS011;10194;50.824;7.134;2023-05-14T03:26:02;166.20;;;107.67;;
20067;SDS011;10194;50.824;7.134;2023-05-14T03:28:29;167.90;;;106.93;;
20067;SDS011;10194;50.824;7.134;2023-05-14T03:30:55;162.30;;;103.97;;
20067;SDS011;10194;50.824;7.134;2023-05-14T03:33:20;163.60;;;106.37;;
20067;SDS011;10194;50.824;7.134;2023-05-14T03:35:46;169.63;;;117.37;;
20067;SDS011;10194;50.824;7.134;2023-05-14T03:38:12;178.20;;;124.10;;
20067;SDS011;10194;50.824;7.134;2023-05-14T03:40:38;174.80;;;114.73;;
20067;SDS011;10194;50.824;7.134;2023-05-14T03:43:04;173.57;;;113.33;;
20067;SDS011;10194;50.824;7.134;2023-05-14T03:45:30;163.47;;;112.53;;
20067;SDS011;10194;50.824;7.134;2023-05-14T03:47:57;163.23;;;106.57;;
20067;SDS011;10194;50.824;7.134;2023-05-14T03:50:22;159.87;;;106.23;;
20067;SDS011;10194;50.824;7.134;2023-05-14T03:52:49;154.90;;;99.13;;
20067;SDS011;10194;50.824;7.134;2023-05-14T03:55:17;153.70;;;103.27;;
20067;SDS011;10194;50.824;7.134;2023-05-14T03:57:43;161.07;;;113.83;;
20067;SDS011;10194;50.824;7.134;2023-05-14T04:00:10;160.77;;;113.40;;
20067;SDS011;10194;50.824;7.134;2023-05-14T04:02:36;162.30;;;117.23;;
20067;SDS011;10194;50.824;7.134;2023-05-14T04:05:02;174.80;;;129.87;;
20067;SDS011;10194;50.824;7.134;2023-05-14T04:07:28;170.80;;;124.20;;
20067;SDS011;10194;50.824;7.134;2023-05-14T04:09:54;172.17;;;124.37;;
20067;SDS011;10194;50.824;7.134;2023-05-14T04:12:19;167.30;;;120.30;;
20067;SDS011;10194;50.824;7.134;2023-05-14T04:14:45;164.93;;;112.03;;
20067;SDS011;10194;50.824;7.134;2023-05-14T04:17:11;160.83;;;110.63;;
20067;SDS011;10194;50.824;7.134;2023-05-14T04:19:37;163.83;;;114.37;;
20067;SDS011;10194;50.824;7.134;2023-05-14T04:22:04;167.43;;;125.00;;
20067;SDS011;10194;50.824;7.134;2023-05-14T04:24:30;167.13;;;118.93;;
20067;SDS011;10194;50.824;7.134;2023-05-14T04:26:56;163.57;;;116.13;;
20067;SDS011;10194;50.824;7.134;2023-05-14T04:29:21;182.50;;;127.27;;
20067;SDS011;10194;50.824;7.134;2023-05-14T04:31:50;174.10;;;130.53;;
20067;SDS011;10194;50.824;7.134;2023-05-14T04:34:16;173.43;;;120.97;;
20067;SDS011;10194;50.824;7.134;2023-05-14T04:36:42;172.87;;;122.90;;
20067;SDS011;10194;50.824;7.134;2023-05-14T04:39:07;180.00;;;126.97;;
20067;SDS011;10194;50.824;7.134;2023-05-14T04:41:33;177.70;;;126.27;;
20067;SDS011;10194;50.824;7.134;2023-05-14T04:44:01;176.07;;;120.40;;
20067;SDS011;10194;50.824;7.134;2023-05-14T04:46:27;175.63;;;119.83;;
20067;SDS011;10194;50.824;7.134;2023-05-14T04:48:54;173.10;;;116.80;;
20067;SDS011;10194;50.824;7.134;2023-05-14T04:51:20;170.30;;;115.00;;
20067;SDS011;10194;50.824;7.134;2023-05-14T04:53:47;173.07;;;115.70;;
20067;SDS011;10194;50.824;7.134;2023-05-14T04:56:12;165.50;;;114.30;;
20067;SDS011;10194;50.824;7.134;2023-05-14T04:58:38;164.77;;;107.80;;
20067;SDS011;10194;50.824;7.134;2023-05-14T05:01:04;160.00;;;100.83;;
20067;SDS011;10194;50.824;7.134;2023-05-14T05:03:30;160.03;;;106.03;;
20067;SDS011;10194;50.824;7.134;2023-05-14T05:05:56;160.07;;;101.07;;
20067;SDS011;10194;50.824;7.134;2023-05-14T05:08:22;156.40;;;96.87;;
20067;SDS011;10194;50.824;7.134;2023-05-14T05:10:48;151.50;;;91.50;;
20067;SDS011;10194;50.824;7.134;2023-05-14T05:13:13;152.33;;;91.27;;
20067;SDS011;10194;50.824;7.134;2023-05-14T05:15:41;149.50;;;86.83;;
20067;SDS011;10194;50.824;7.134;2023-05-14T05:18:07;156.63;;;92.30;;
20067;SDS011;10194;50.824;7.134;2023-05-14T05:20:33;160.23;;;96.93;;
20067;SDS011;10194;50.824;7.134;2023-05-14T05:22:59;158.57;;;93.03;;
20067;SDS011;10194;50.824;7.134;2023-05-14T05:25:26;157.87;;;94.47;;
20067;SDS011;10194;50.824;7.134;2023-05-14T05:27:51;154.07;;;91.13;;
20067;SDS011;10194;50.824;7.134;2023-05-14T05:30:17;154.43;;;92.53;;
20067;SDS011;10194;50.824;7.134;2023-05-14T05:32:43;150.43;;;90.40;;
20067;SDS011;10194;50.824;7.134;2023-05-14T05:35:09;144.40;;;81.87;;
20067;SDS011;10194;50.824;7.134;2023-05-14T05:37:35;145.50;;;83.80;;
20067;SDS011;10194;50.824;7.134;2023-05-14T05:40:00;149.00;;;89.60;;
20067;SDS011;10194;50.824;7.134;2023-05-14T05:42:28;150.47;;;93.13;;
20067;SDS011;10194;50.824;7.134;2023-05-14T05:44:53;152.90;;;96.63;;
20067;SDS011;10194;50.824;7.134;2023-05-14T05:47:20;147.80;;;91.07;;
20067;SDS011;10194;50.824;7.134;2023-05-14T05:49:45;152.47;;;94.60;;
20067;SDS011;10194;50.824;7.134;2023-05-14T05:52:11;142.87;;;88.63;;
20067;SDS011;10194;50.824;7.134;2023-05-14T05:54:37;147.20;;;87.10;;
20067;SDS011;10194;50.824;7.134;2023-05-14T05:57:04;142.90;;;84.20;;
20067;SDS011;10194;50.824;7.134;2023-05-14T05:59:29;147.37;;;81.17;;
20067;SDS011;10194;50.824;7.134;2023-05-14T06:01:55;142.43;;;76.20;;
20067;SDS011;10194;50.824;7.134;2023-05-14T06:04:21;141.00;;;73.63;;
20067;SDS011;10194;50.824;7.134;2023-05-14T06:06:47;137.57;;;73.97;;
20067;SDS011;10194;50.824;7.134;2023-05-14T06:09:12;143.73;;;74.30;;
20067;SDS011;10194;50.824;7.134;2023-05-14T06:11:38;139.63;;;74.60;;
20067;SDS011;10194;50.824;7.134;2023-05-14T06:14:04;139.10;;;74.30;;
20067;SDS011;10194;50.824;7.134;2023-05-14T06:16:30;139.73;;;74.77;;
20067;SDS011;10194;50.824;7.134;2023-05-14T06:18:56;139.33;;;74.33;;
20067;SDS011;10194;50.824;7.134;2023-05-14T06:21:21;143.50;;;74.97;;
20067;SDS011;10194;50.824;7.134;2023-05-14T06:23:47;140.07;;;74.90;;
20067;SDS011;10194;50.824;7.134;2023-05-14T06:26:13;140.47;;;75.77;;
20067;SDS011;10194;50.824;7.134;2023-05-14T06:28:38;142.23;;;75.30;;
20067;SDS011;10194;50.824;7.134;2023-05-14T06:31:04;144.80;;;76.33;;
20067;SDS011;10194;50.824;7.134;2023-05-14T06:33:30;141.23;;;76.50;;
20067;SDS011;10194;50.824;7.134;2023-05-14T06:35:59;142.00;;;78.37;;
20067;SDS011;10194;50.824;7.134;2023-05-14T06:38:28;143.33;;;78.90;;
20067;SDS011;10194;50.824;7.134;2023-05-14T06:40:54;141.87;;;78.87;;
20067;SDS011;10194;50.824;7.134;2023-05-14T06:43:20;141.07;;;79.90;;
20067;SDS011;10194;50.824;7.134;2023-05-14T06:45:49;142.50;;;81.07;;
20067;SDS011;10194;50.824;7.134;2023-05-14T06:48:15;143.57;;;82.20;;
20067;SDS011;10194;50.824;7.134;2023-05-14T06:50:42;144.07;;;81.47;;
20067;SDS011;10194;50.824;7.134;2023-05-14T06:53:09;143.23;;;82.83;;
20067;SDS011;10194;50.824;7.134;2023-05-14T06:55:35;147.17;;;83.23;;
20067;SDS011;10194;50.824;7.134;2023-05-14T06:58:01;151.10;;;87.97;;
20067;SDS011;10194;50.824;7.134;2023-05-14T07:00:26;165.57;;;107.10;;
20067;SDS011;10194;50.824;7.134;2023-05-14T07:02:52;163.03;;;103.23;;
20067;SDS011;10194;50.824;7.134;2023-05-14T07:05:18;160.47;;;100.07;;
20067;SDS011;10194;50.824;7.134;2023-05-14T07:07:44;167.13;;;113.13;;
20067;SDS011;10194;50.824;7.134;2023-05-14T07:10:09;165.10;;;117.03;;
20067;SDS011;10194;50.824;7.134;2023-05-14T07:12:36;172.50;;;122.33;;
20067;SDS011;10194;50.824;7.134;2023-05-14T07:15:01;171.17;;;124.00;;
20067;SDS011;10194;50.824;7.134;2023-05-14T07:17:27;170.80;;;123.37;;
20067;SDS011;10194;50.824;7.134;2023-05-14T07:19:53;171.63;;;129.37;;
20067;SDS011;10194;50.824;7.134;2023-05-14T07:22:22;167.27;;;124.60;;
20067;SDS011;10194;50.824;7.134;2023-05-14T07:24:47;163.97;;;120.17;;
20067;SDS011;10194;50.824;7.134;2023-05-14T07:27:14;170.37;;;129.83;;
20067;SDS011;10194;50.824;7.134;2023-05-14T07:29:41;160.80;;;118.83;;
20067;SDS011;10194;50.824;7.134;2023-05-14T07:32:07;160.63;;;114.90;;
20067;SDS011;10194;50.824;7.134;2023-05-14T07:34:33;166.80;;;124.10;;
20067;SDS011;10194;50.824;7.134;2023-05-14T07:36:59;165.93;;;119.97;;
20067;SDS011;10194;50.824;7.134;2023-05-14T07:39:25;173.90;;;122.63;;
20067;SDS011;10194;50.824;7.134;2023-05-14T07:41:51;156.50;;;106.90;;
20067;SDS011;10194;50.824;7.134;2023-05-14T07:44:18;156.97;;;104.70;;
20067;SDS011;10194;50.824;7.134;2023-05-14T07:46:45;160.77;;;104.33;;
20067;SDS011;10194;50.824;7.134;2023-05-14T07:49:11;149.83;;;93.53;;
20067;SDS011;10194;50.824;7.134;2023-05-14T07:51:37;150.33;;;90.33;;
20067;SDS011;10194;50.824;7.134;2023-05-14T07:54:03;145.57;;;82.53;;
20067;SDS011;10194;50.824;7.134;2023-05-14T07:56:29;151.17;;;89.47;;
20067;SDS011;10194;50.824;7.134;2023-05-14T07:58:55;149.97;;;86.30;;
20067;SDS011;10194;50.824;7.134;2023-05-14T08:01:20;146.40;;;82.80;;
20067;SDS011;10194;50.824;7.134;2023-05-14T08:03:47;159.30;;;91.67;;
20067;SDS011;10194;50.824;7.134;2023-05-14T08:06:13;146.00;;;82.80;;
20067;SDS011;10194;50.824;7.134;2023-05-14T08:08:39;159.07;;;91.33;;
20067;SDS011;10194;50.824;7.134;2023-05-14T08:11:05;146.67;;;83.50;;
20067;SDS011;10194;50.824;7.134;2023-05-14T08:13:30;151.07;;;90.03;;
20067;SDS011;10194;50.824;7.134;2023-05-14T08:15:56;154.70;;;91.33;;
20067;SDS011;10194;50.824;7.134;2023-05-14T08:18:22;150.40;;;87.53;;
20067;SDS011;10194;50.824;7.134;2023-05-14T08:20:48;140.63;;;80.00;;
20067;SDS011;10194;50.824;7.134;2023-05-14T08:23:14;140.30;;;79.60;;
20067;SDS011;10194;50.824;7.134;2023-05-14T08:25:39;139.53;;;78.63;;
20067;SDS011;10194;50.824;7.134;2023-05-14T08:28:05;145.13;;;79.63;;
20067;SDS011;10194;50.824;7.134;2023-05-14T08:30:31;141.07;;;79.47;;
20067;SDS011;10194;50.824;7.134;2023-05-14T08:32:57;141.03;;;80.53;;
20067;SDS011;10194;50.824;7.134;2023-05-14T08:35:23;147.40;;;83.20;;
20067;SDS011;10194;50.824;7.134;2023-05-14T08:37:49;151.17;;;84.20;;
20067;SDS011;10194;50.824;7.134;2023-05-14T08:40:16;149.93;;;87.43;;
20067;SDS011;10194;50.824;7.134;2023-05-14T08:42:42;149.80;;;88.67;;
20067;SDS011;10194;50.824;7.134;2023-05-14T08:47:35;146.17;;;84.30;;
20067;SDS011;10194;50.824;7.134;2023-05-14T08:50:02;143.33;;;81.00;;
20067;SDS011;10194;50.824;7.134;2023-05-14T08:52:30;146.67;;;85.80;;
20067;SDS011;10194;50.824;7.134;2023-05-14T08:54:57;149.03;;;84.90;;
20067;SDS011;10194;50.824;7.134;2023-05-14T08:57:29;153.33;;;88.97;;
20067;SDS011;10194;50.824;7.134;2023-05-14T08:59:56;147.47;;;87.97;;
20067;SDS011;10194;50.824;7.134;2023-05-14T09:02:23;141.93;;;82.77;;
20067;SDS011;10194;50.824;7.134;2023-05-14T09:04:56;158.13;;;88.27;;
20067;SDS011;10194;50.824;7.134;2023-05-14T09:07:24;140.20;;;82.60;;
20067;SDS011;10194;50.824;7.134;2023-05-14T09:09:50;149.77;;;91.50;;
20067;SDS011;10194;50.824;7.134;2023-05-14T09:12:16;147.97;;;88.77;;
20067;SDS011;10194;50.824;7.134;2023-05-14T09:14:42;149.00;;;90.63;;
20067;SDS011;10194;50.824;7.134;2023-05-14T09:17:09;152.07;;;94.23;;
20067;SDS011;10194;50.824;7.134;2023-05-14T09:19:37;148.20;;;90.87;;
20067;SDS011;10194;50.824;7.134;2023-05-14T09:22:05;141.07;;;84.30;;
20067;SDS011;10194;50.824;7.134;2023-05-14T09:24:34;154.40;;;97.77;;
20067;SDS011;10194;50.824;7.134;2023-05-14T09:27:00;161.00;;;104.10;;
20067;SDS011;10194;50.824;7.134;2023-05-14T09:29:27;157.87;;;94.00;;
20067;SDS011;10194;50.824;7.134;2023-05-14T09:31:54;150.90;;;95.57;;
20067;SDS011;10194;50.824;7.134;2023-05-14T09:34:28;151.60;;;92.30;;
20067;SDS011;10194;50.824;7.134;2023-05-14T09:39:27;162.30;;;101.90;;
20067;SDS011;10194;50.824;7.134;2023-05-14T09:41:54;152.03;;;94.60;;
20067;SDS011;10194;50.824;7.134;2023-05-14T09:44:20;159.00;;;104.00;;
20067;SDS011;10194;50.824;7.134;2023-05-14T09:46:49;164.13;;;107.50;;
20067;SDS011;10194;50.824;7.134;2023-05-14T09:49:15;147.50;;;90.07;;
20067;SDS011;10194;50.824;7.134;2023-05-14T09:51:41;154.57;;;98.27;;
20067;SDS011;10194;50.824;7.134;2023-05-14T09:54:07;150.87;;;91.87;;
20067;SDS011;10194;50.824;7.134;2023-05-14T09:56:34;156.93;;;97.23;;
20067;SDS011;10194;50.824;7.134;2023-05-14T09:59:01;143.37;;;82.80;;
20067;SDS011;10194;50.824;7.134;2023-05-14T10:01:28;143.00;;;82.73;;
20067;SDS011;10194;50.824;7.134;2023-05-14T10:03:55;153.60;;;95.03;;
20067;SDS011;10194;50.824;7.134;2023-05-14T10:06:26;157.37;;;98.50;;
20067;SDS011;10194;50.824;7.134;2023-05-14T10:08:56;152.00;;;93.13;;
20067;SDS011;10194;50.824;7.134;2023-05-14T10:11:29;141.60;;;83.20;;
20067;SDS011;10194;50.824;7.134;2023-05-14T10:14:02;150.60;;;93.90;;
20067;SDS011;10194;50.824;7.134;2023-05-14T10:16:43;155.97;;;99.63;;
20067;SDS011;10194;50.824;7.134;2023-05-14T10:19:14;147.10;;;89.13;;
20067;SDS011;10194;50.824;7.134;2023-05-14T10:21:43;154.37;;;99.07;;
20067;SDS011;10194;50.824;7.134;2023-05-14T10:24:19;162.23;;;106.63;;
20067;SDS011;10194;50.824;7.134;2023-05-14T10:26:46;141.90;;;84.43;;
20067;SDS011;10194;50.824;7.134;2023-05-14T10:29:12;154.37;;;97.77;;
20067;SDS011;10194;50.824;7.134;2023-05-14T10:39:40;155.07;;;101.60;;
20067;SDS011;10194;50.824;7.134;2023-05-14T10:42:07;157.93;;;103.17;;
20067;SDS011;10194;50.824;7.134;2023-05-14T10:44:57;152.53;;;99.63;;
20067;SDS011;10194;50.824;7.134;2023-05-14T10:47:31;149.50;;;96.83;;
20067;SDS011;10194;50.824;7.134;2023-05-14T10:49:58;154.60;;;102.63;;
20067;SDS011;10194;50.824;7.134;2023-05-14T10:52:28;155.37;;;105.53;;
20067;SDS011;10194;50.824;7.134;2023-05-14T10:54:55;150.90;;;99.33;;
20067;SDS011;10194;50.824;7.134;2023-05-14T10:57:26;162.07;;;114.90;;
20067;SDS011;10194;50.824;7.134;2023-05-14T10:59:55;159.20;;;109.83;;
20067;SDS011;10194;50.824;7.134;2023-05-14T11:02:26;155.37;;;104.33;;
20067;SDS011;10194;50.824;7.134;2023-05-14T11:05:01;153.67;;;95.97;;
20067;SDS011;10194;50.824;7.134;2023-05-14T11:07:36;156.23;;;101.67;;
20067;SDS011;10194;50.824;7.134;2023-05-14T11:12:37;148.87;;;91.67;;
20067;SDS011;10194;50.824;7.134;2023-05-14T11:15:06;154.17;;;93.80;;
20067;SDS011;10194;50.824;7.134;2023-05-14T11:17:35;150.23;;;93.47;;
20067;SDS011;10194;50.824;7.134;2023-05-14T11:20:04;155.80;;;99.60;;
20067;SDS011;10194;50.824;7.134;2023-05-14T11:22:32;146.10;;;89.37;;
20067;SDS011;10194;50.824;7.134;2023-05-14T11:24:58;150.63;;;92.40;;
20067;SDS011;10194;50.824;7.134;2023-05-14T11:27:24;140.47;;;83.00;;
20067;SDS011;10194;50.824;7.134;2023-05-14T11:29:50;139.90;;;82.67;;
20067;SDS011;10194;50.824;7.134;2023-05-14T11:32:16;147.43;;;90.53;;
20067;SDS011;10194;50.824;7.134;2023-05-14T11:34:43;141.37;;;84.97;;
20067;SDS011;10194;50.824;7.134;2023-05-14T11:37:11;153.10;;;97.87;;
20067;SDS011;10194;50.824;7.134;2023-05-14T11:39:38;142.43;;;86.07;;
20067;SDS011;10194;50.824;7.134;2023-05-14T11:42:11;144.17;;;88.77;;
20067;SDS011;10194;50.824;7.134;2023-05-14T11:44:38;153.77;;;100.73;;
20067;SDS011;10194;50.824;7.134;2023-05-14T11:47:05;156.60;;;103.53;;
20067;SDS011;10194;50.824;7.134;2023-05-14T11:49:31;153.97;;;91.83;;
20067;SDS011;10194;50.824;7.134;2023-05-14T11:52:00;141.53;;;84.83;;
20067;SDS011;10194;50.824;7.134;2023-05-14T11:54:28;149.80;;;95.67;;
20067;SDS011;10194;50.824;7.134;2023-05-14T11:56:55;150.30;;;92.70;;
20067;SDS011;10194;50.824;7.134;2023-05-14T11:59:26;157.20;;;96.53;;
20067;SDS011;10194;50.824;7.134;2023-05-14T12:01:55;148.40;;;91.57;;
20067;SDS011;10194;50.824;7.134;2023-05-14T12:04:21;161.63;;;106.33;;
20067;SDS011;10194;50.824;7.134;2023-05-14T12:06:48;158.40;;;105.83;;
20067;SDS011;10194;50.824;7.134;2023-05-14T12:09:18;160.47;;;105.43;;
20067;SDS011;10194;50.824;7.134;2023-05-14T12:11:45;165.40;;;110.37;;
20067;SDS011;10194;50.824;7.134;2023-05-14T12:14:16;145.43;;;91.33;;
20067;SDS011;10194;50.824;7.134;2023-05-14T12:16:44;151.90;;;99.07;;
20067;SDS011;10194;50.824;7.134;2023-05-14T12:19:13;143.80;;;90.07;;
20067;SDS011;10194;50.824;7.134;2023-05-14T12:21:41;149.77;;;95.50;;
20067;SDS011;10194;50.824;7.134;2023-05-14T12:24:09;154.20;;;101.60;;
20067;SDS011;10194;50.824;7.134;2023-05-14T12:26:46;162.40;;;111.90;;
20067;SDS011;10194;50.824;7.134;2023-05-14T12:29:14;156.70;;;104.30;;
20067;SDS011;10194;50.824;7.134;2023-05-14T12:31:44;165.10;;;112.50;;
20067;SDS011;10194;50.824;7.134;2023-05-14T12:34:12;155.10;;;104.47;;
20067;SDS011;10194;50.824;7.134;2023-05-14T12:36:37;167.70;;;115.10;;
20067;SDS011;10194;50.824;7.134;2023-05-14T12:39:03;143.67;;;89.77;;
20067;SDS011;10194;50.824;7.134;2023-05-14T12:41:30;153.07;;;99.97;;
20067;SDS011;10194;50.824;7.134;2023-05-14T12:43:57;152.73;;;96.83;;
20067;SDS011;10194;50.824;7.134;2023-05-14T12:46:23;160.07;;;106.90;;
20067;SDS011;10194;50.824;7.134;2023-05-14T12:48:51;152.13;;;98.87;;
20067;SDS011;10194;50.824;7.134;2023-05-14T12:51:21;162.40;;;105.70;;
20067;SDS011;10194;50.824;7.134;2023-05-14T12:53:47;149.60;;;94.17;;
20067;SDS011;10194;50.824;7.134;2023-05-14T12:56:13;164.93;;;111.80;;
20067;SDS011;10194;50.824;7.134;2023-05-14T12:58:39;154.83;;;104.00;;
20067;SDS011;10194;50.824;7.134;2023-05-14T13:01:05;162.77;;;112.13;;
20067;SDS011;10194;50.824;7.134;2023-05-14T13:03:31;160.53;;;109.77;;
20067;SDS011;10194;50.824;7.134;2023-05-14T13:05:57;155.30;;;103.90;;
20067;SDS011;10194;50.824;7.134;2023-05-14T13:08:24;163.23;;;110.60;;
20067;SDS011;10194;50.824;7.134;2023-05-14T13:10:52;157.77;;;106.60;;
20067;SDS011;10194;50.824;7.134;2023-05-14T13:13:19;156.30;;;105.67;;
20067;SDS011;10194;50.824;7.134;2023-05-14T13:15:46;162.37;;;110.90;;
20067;SDS011;10194;50.824;7.134;2023-05-14T13:18:15;147.03;;;93.33;;
20067;SDS011;10194;50.824;7.134;2023-05-14T13:20:41;161.97;;;109.73;;
20067;SDS011;10194;50.824;7.134;2023-05-14T13:23:07;154.53;;;102.87;;
20067;SDS011;10194;50.824;7.134;2023-05-14T13:25:34;161.30;;;108.10;;
20067;SDS011;10194;50.824;7.134;2023-05-14T13:28:00;157.60;;;104.33;;
20067;SDS011;10194;50.824;7.134;2023-05-14T13:30:25;164.77;;;109.17;;
20067;SDS011;10194;50.824;7.134;2023-05-14T13:32:51;142.97;;;87.93;;
20067;SDS011;10194;50.824;7.134;2023-05-14T13:35:17;157.93;;;100.93;;
20067;SDS011;10194;50.824;7.134;2023-05-14T13:37:43;160.97;;;107.47;;
20067;SDS011;10194;50.824;7.134;2023-05-14T13:40:09;156.03;;;101.57;;
20067;SDS011;10194;50.824;7.134;2023-05-14T13:42:35;155.83;;;98.50;;
20067;SDS011;10194;50.824;7.134;2023-05-14T13:45:03;157.40;;;101.93;;
20067;SDS011;10194;50.824;7.134;2023-05-14T13:47:30;149.17;;;93.63;;
20067;SDS011;10194;50.824;7.134;2023-05-14T13:49:56;156.23;;;101.87;;
20067;SDS011;10194;50.824;7.134;2023-05-14T13:52:22;156.47;;;102.77;;
20067;SDS011;10194;50.824;7.134;2023-05-14T13:54:48;156.80;;;103.63;;
20067;SDS011;10194;50.824;7.134;2023-05-14T13:57:14;156.33;;;101.83;;
20067;SDS011;10194;50.824;7.134;2023-05-14T13:59:40;161.17;;;104.23;;
20067;SDS011;10194;50.824;7.134;2023-05-14T14:02:06;157.60;;;105.20;;
20067;SDS011;10194;50.824;7.134;2023-05-14T14:04:32;145.97;;;91.70;;
20067;SDS011;10194;50.824;7.134;2023-05-14T14:06:58;159.27;;;105.63;;
20067;SDS011;10194;50.824;7.134;2023-05-14T14:09:24;167.67;;;108.20;;
20067;SDS011;10194;50.824;7.134;2023-05-14T14:11:50;154.47;;;98.17;;
20067;SDS011;10194;50.824;7.134;2023-05-14T14:14:16;156.50;;;102.27;;
20067;SDS011;10194;50.824;7.134;2023-05-14T14:16:42;156.00;;;101.30;;
20067;SDS011;10194;50.824;7.134;2023-05-14T14:19:09;156.67;;;99.23;;
20067;SDS011;10194;50.824;7.134;2023-05-14T14:21:35;159.70;;;98.40;;
20067;SDS011;10194;50.824;7.134;2023-05-14T14:24:03;157.07;;;101.40;;